sensor_id;sensor_type;location;lat;lon;timestamp;P1;durP1;ratioP1;P2;durP2;ratioP2
17251;SDS011;8742;51.716;8.790;2023-05-16T00:01:56;17.87;;;11.77;;
17251;SDS011;8742;51.716;8.790;2023-05-16T00:04:23;17.07;;;10.80;;
17251;SDS011;8742;51.716;8.790;2023-05-16T00:06:51;21.03;;;11.23;;
17251;SDS011;8742;51.716;8.790;2023-05-16T00:09:19;22.70;;;11.83;;
17251;SDS011;8742;51.716;8.790;2023-05-16T00:11:46;16.13;;;11.43;;
17251;SDS011;8742;51.716;8.790;2023-05-16T00:14:14;16.97;;;11.27;;
17251;SDS011;8742;51.716;8.790;2023-05-16T00:16:41;17.87;;;11.47;;
17251;SDS011;8742;51.716;8.790;2023-05-16T00:19:08;21.57;;;11.37;;
17251;SDS011;8742;51.716;8.790;2023-05-16T00:21:35;20.33;;;11.40;;
17251;SDS011;8742;51.716;8.790;2023-05-16T00:24:02;18.37;;;11.03;;
17251;SDS011;8742;51.716;8.790;2023-05-16T00:26:31;18.80;;;10.30;;
17251;SDS011;8742;51.716;8.790;2023-05-16T00:28:57;14.47;;;9.67;;
17251;SDS011;8742;51.716;8.790;2023-05-16T00:31:24;17.90;;;10.00;;
17251;SDS011;8742;51.716;8.790;2023-05-16T00:33:51;17.07;;;9.60;;
17251;SDS011;8742;51.716;8.790;2023-05-16T00:36:18;18.47;;;9.57;;
17251;SDS011;8742;51.716;8.790;2023-05-16T00:38:45;20.10;;;9.93;;
17251;SDS011;8742;51.716;8.790;2023-05-16T00:41:12;14.77;;;9.57;;
17251;SDS011;8742;51.716;8.790;2023-05-16T00:43:40;15.30;;;10.30;;
17251;SDS011;8742;51.716;8.790;2023-05-16T00:46:07;17.93;;;10.37;;
17251;SDS011;8742;51.716;8.790;2023-05-16T00:48:34;16.67;;;9.97;;
17251;SDS011;8742;51.716;8.790;2023-05-16T00:51:01;18.93;;;9.10;;
17251;SDS011;8742;51.716;8.790;2023-05-16T00:53:28;17.90;;;10.00;;
17251;SDS011;8742;51.716;8.790;2023-05-16T00:55:55;14.83;;;9.47;;
17251;SDS011;8742;51.716;8.790;2023-05-16T00:58:22;18.03;;;10.30;;
17251;SDS011;8742;51.716;8.790;2023-05-16T01:00:51;16.70;;;9.83;;
17251;SDS011;8742;51.716;8.790;2023-05-16T01:03:18;14.17;;;9.27;;
17251;SDS011;8742;51.716;8.790;2023-05-16T01:05:45;14.30;;;8.93;;
17251;SDS011;8742;51.716;8.790;2023-05-16T01:08:13;14.73;;;9.40;;
17251;SDS011;8742;51.716;8.790;2023-05-16T01:10:42;17.77;;;9.73;;
17251;SDS011;8742;51.716;8.790;2023-05-16T01:13:16;13.67;;;9.43;;
17251;SDS011;8742;51.716;8.790;2023-05-16T01:15:49;21.30;;;9.67;;
17251;SDS011;8742;51.716;8.790;2023-05-16T01:18:24;15.57;;;9.57;;
17251;SDS011;8742;51.716;8.790;2023-05-16T01:20:57;18.67;;;10.27;;
17251;SDS011;8742;51.716;8.790;2023-05-16T01:23:32;19.30;;;9.93;;
17251;SDS011;8742;51.716;8.790;2023-05-16T01:26:10;17.53;;;9.60;;
17251;SDS011;8742;51.716;8.790;2023-05-16T01:28:40;15.70;;;10.47;;
17251;SDS011;8742;51.716;8.790;2023-05-16T01:31:09;19.03;;;10.37;;
17251;SDS011;8742;51.716;8.790;2023-05-16T01:33:36;17.10;;;10.43;;
17251;SDS011;8742;51.716;8.790;2023-05-16T01:36:05;22.30;;;10.93;;
17251;SDS011;8742;51.716;8.790;2023-05-16T01:38:38;14.93;;;10.27;;
17251;SDS011;8742;51.716;8.790;2023-05-16T01:41:14;15.80;;;10.77;;
17251;SDS011;8742;51.716;8.790;2023-05-16T01:43:47;18.23;;;10.60;;
17251;SDS011;8742;51.716;8.790;2023-05-16T01:46:19;20.67;;;10.40;;
17251;SDS011;8742;51.716;8.790;2023-05-16T01:48:51;18.43;;;10.57;;
17251;SDS011;8742;51.716;8.790;2023-05-16T01:51:21;19.13;;;10.37;;
17251;SDS011;8742;51.716;8.790;2023-05-16T01:53:54;20.20;;;10.67;;
17251;SDS011;8742;51.716;8.790;2023-05-16T01:56:26;19.47;;;10.57;;
17251;SDS011;8742;51.716;8.790;2023-05-16T01:58:55;18.30;;;10.80;;
17251;SDS011;8742;51.716;8.790;2023-05-16T02:01:24;19.00;;;11.27;;
17251;SDS011;8742;51.716;8.790;2023-05-16T02:03:51;13.40;;;9.23;;
17251;SDS011;8742;51.716;8.790;2023-05-16T02:06:18;17.70;;;8.97;;
17251;SDS011;8742;51.716;8.790;2023-05-16T02:08:45;18.60;;;10.70;;
17251;SDS011;8742;51.716;8.790;2023-05-16T02:11:13;17.93;;;10.50;;
17251;SDS011;8742;51.716;8.790;2023-05-16T02:13:41;19.97;;;10.70;;
17251;SDS011;8742;51.716;8.790;2023-05-16T02:16:09;20.07;;;10.50;;
17251;SDS011;8742;51.716;8.790;2023-05-16T02:18:36;16.97;;;9.53;;
17251;SDS011;8742;51.716;8.790;2023-05-16T02:21:03;22.00;;;10.40;;
17251;SDS011;8742;51.716;8.790;2023-05-16T02:23:30;19.67;;;9.30;;
17251;SDS011;8742;51.716;8.790;2023-05-16T02:25:57;14.37;;;9.03;;
17251;SDS011;8742;51.716;8.790;2023-05-16T02:28:24;15.17;;;8.97;;
17251;SDS011;8742;51.716;8.790;2023-05-16T02:30:56;16.70;;;9.17;;
17251;SDS011;8742;51.716;8.790;2023-05-16T02:33:23;12.50;;;8.40;;
17251;SDS011;8742;51.716;8.790;2023-05-16T02:35:50;14.37;;;7.60;;
17251;SDS011;8742;51.716;8.790;2023-05-16T02:38:17;14.90;;;6.83;;
17251;SDS011;8742;51.716;8.790;2023-05-16T02:40:45;14.90;;;7.20;;
17251;SDS011;8742;51.716;8.790;2023-05-16T02:43:12;11.80;;;6.83;;
17251;SDS011;8742;51.716;8.790;2023-05-16T02:45:39;10.53;;;6.63;;
17251;SDS011;8742;51.716;8.790;2023-05-16T02:48:07;9.83;;;6.17;;
17251;SDS011;8742;51.716;8.790;2023-05-16T02:50:34;11.00;;;6.37;;
17251;SDS011;8742;51.716;8.790;2023-05-16T02:53:01;11.13;;;6.43;;
17251;SDS011;8742;51.716;8.790;2023-05-16T02:55:28;15.63;;;6.30;;
17251;SDS011;8742;51.716;8.790;2023-05-16T02:57:55;12.63;;;5.80;;
17251;SDS011;8742;51.716;8.790;2023-05-16T03:00:22;10.13;;;5.37;;
17251;SDS011;8742;51.716;8.790;2023-05-16T03:02:49;5.53;;;3.63;;
17251;SDS011;8742;51.716;8.790;2023-05-16T03:05:17;4.43;;;3.10;;
17251;SDS011;8742;51.716;8.790;2023-05-16T03:07:44;3.70;;;3.03;;
17251;SDS011;8742;51.716;8.790;2023-05-16T03:10:11;5.57;;;3.10;;
17251;SDS011;8742;51.716;8.790;2023-05-16T03:12:38;4.43;;;3.23;;
17251;SDS011;8742;51.716;8.790;2023-05-16T03:15:05;6.27;;;2.97;;
17251;SDS011;8742;51.716;8.790;2023-05-16T03:17:33;4.40;;;2.53;;
17251;SDS011;8742;51.716;8.790;2023-05-16T03:20:00;4.40;;;2.80;;
17251;SDS011;8742;51.716;8.790;2023-05-16T03:22:30;9.23;;;2.87;;
17251;SDS011;8742;51.716;8.790;2023-05-16T03:24:56;6.50;;;2.70;;
17251;SDS011;8742;51.716;8.790;2023-05-16T03:27:23;6.03;;;3.23;;
17251;SDS011;8742;51.716;8.790;2023-05-16T03:29:52;15.97;;;2.93;;
17251;SDS011;8742;51.716;8.790;2023-05-16T03:32:19;5.47;;;3.27;;
17251;SDS011;8742;51.716;8.790;2023-05-16T03:34:46;8.00;;;3.00;;
17251;SDS011;8742;51.716;8.790;2023-05-16T03:37:13;6.50;;;2.87;;
17251;SDS011;8742;51.716;8.790;2023-05-16T03:39:41;6.33;;;2.67;;
17251;SDS011;8742;51.716;8.790;2023-05-16T03:42:08;7.03;;;3.37;;
17251;SDS011;8742;51.716;8.790;2023-05-16T03:44:35;8.37;;;3.17;;
17251;SDS011;8742;51.716;8.790;2023-05-16T03:47:02;6.43;;;3.40;;
17251;SDS011;8742;51.716;8.790;2023-05-16T03:49:29;8.80;;;3.80;;
17251;SDS011;8742;51.716;8.790;2023-05-16T03:51:56;6.60;;;3.27;;
17251;SDS011;8742;51.716;8.790;2023-05-16T03:54:23;6.03;;;3.27;;
17251;SDS011;8742;51.716;8.790;2023-05-16T03:56:51;10.23;;;3.10;;
17251;SDS011;8742;51.716;8.790;2023-05-16T03:59:18;9.90;;;3.47;;
17251;SDS011;8742;51.716;8.790;2023-05-16T04:01:44;5.03;;;3.07;;
17251;SDS011;8742;51.716;8.790;2023-05-16T04:04:11;11.80;;;3.23;;
17251;SDS011;8742;51.716;8.790;2023-05-16T04:06:38;5.30;;;3.10;;
17251;SDS011;8742;51.716;8.790;2023-05-16T04:09:05;7.67;;;3.43;;
17251;SDS011;8742;51.716;8.790;2023-05-16T04:11:32;13.03;;;4.27;;
17251;SDS011;8742;51.716;8.790;2023-05-16T04:14:00;9.90;;;3.47;;
17251;SDS011;8742;51.716;8.790;2023-05-16T04:16:27;8.53;;;3.47;;
17251;SDS011;8742;51.716;8.790;2023-05-16T04:18:54;8.33;;;3.20;;
17251;SDS011;8742;51.716;8.790;2023-05-16T04:21:22;9.70;;;2.97;;
17251;SDS011;8742;51.716;8.790;2023-05-16T04:23:48;10.60;;;3.70;;
17251;SDS011;8742;51.716;8.790;2023-05-16T04:26:15;16.03;;;4.20;;
17251;SDS011;8742;51.716;8.790;2023-05-16T04:28:43;7.03;;;3.00;;
17251;SDS011;8742;51.716;8.790;2023-05-16T04:31:11;8.30;;;3.20;;
17251;SDS011;8742;51.716;8.790;2023-05-16T04:33:38;10.67;;;3.23;;
17251;SDS011;8742;51.716;8.790;2023-05-16T04:36:05;8.97;;;3.53;;
17251;SDS011;8742;51.716;8.790;2023-05-16T04:38:32;11.57;;;3.77;;
17251;SDS011;8742;51.716;8.790;2023-05-16T04:40:59;12.10;;;3.80;;
17251;SDS011;8742;51.716;8.790;2023-05-16T04:43:27;6.87;;;3.37;;
17251;SDS011;8742;51.716;8.790;2023-05-16T04:45:54;13.10;;;3.33;;
17251;SDS011;8742;51.716;8.790;2023-05-16T04:48:24;8.97;;;3.17;;
17251;SDS011;8742;51.716;8.790;2023-05-16T04:50:50;10.73;;;3.10;;
17251;SDS011;8742;51.716;8.790;2023-05-16T04:53:17;8.13;;;3.00;;
17251;SDS011;8742;51.716;8.790;2023-05-16T04:55:44;9.10;;;3.00;;
17251;SDS011;8742;51.716;8.790;2023-05-16T04:58:11;12.93;;;3.60;;
17251;SDS011;8742;51.716;8.790;2023-05-16T05:00:38;10.63;;;3.40;;
17251;SDS011;8742;51.716;8.790;2023-05-16T05:03:05;14.80;;;3.23;;
17251;SDS011;8742;51.716;8.790;2023-05-16T05:05:33;12.33;;;3.20;;
17251;SDS011;8742;51.716;8.790;2023-05-16T05:08:00;15.23;;;3.93;;
17251;SDS011;8742;51.716;8.790;2023-05-16T05:10:27;14.50;;;3.67;;
17251;SDS011;8742;51.716;8.790;2023-05-16T05:12:55;7.90;;;2.93;;
17251;SDS011;8742;51.716;8.790;2023-05-16T05:15:22;9.37;;;2.87;;
17251;SDS011;8742;51.716;8.790;2023-05-16T05:17:49;11.03;;;2.67;;
17251;SDS011;8742;51.716;8.790;2023-05-16T05:20:16;14.40;;;3.50;;
17251;SDS011;8742;51.716;8.790;2023-05-16T05:22:44;11.40;;;3.17;;
17251;SDS011;8742;51.716;8.790;2023-05-16T05:25:11;15.17;;;3.10;;
17251;SDS011;8742;51.716;8.790;2023-05-16T05:27:39;16.43;;;2.93;;
17251;SDS011;8742;51.716;8.790;2023-05-16T05:30:06;9.27;;;2.50;;
17251;SDS011;8742;51.716;8.790;2023-05-16T05:32:33;10.30;;;2.97;;
17251;SDS011;8742;51.716;8.790;2023-05-16T05:35:00;15.07;;;3.47;;
17251;SDS011;8742;51.716;8.790;2023-05-16T05:37:28;18.87;;;3.33;;
17251;SDS011;8742;51.716;8.790;2023-05-16T05:39:56;11.83;;;2.90;;
17251;SDS011;8742;51.716;8.790;2023-05-16T05:42:23;10.10;;;2.90;;
17251;SDS011;8742;51.716;8.790;2023-05-16T05:44:50;16.50;;;3.60;;
17251;SDS011;8742;51.716;8.790;2023-05-16T05:47:16;9.97;;;3.03;;
17251;SDS011;8742;51.716;8.790;2023-05-16T05:49:43;10.73;;;3.30;;
17251;SDS011;8742;51.716;8.790;2023-05-16T05:52:10;15.33;;;3.87;;
17251;SDS011;8742;51.716;8.790;2023-05-16T05:54:37;13.70;;;3.10;;
17251;SDS011;8742;51.716;8.790;2023-05-16T05:57:06;15.93;;;3.03;;
17251;SDS011;8742;51.716;8.790;2023-05-16T05:59:32;16.80;;;3.20;;
17251;SDS011;8742;51.716;8.790;2023-05-16T06:01:59;10.73;;;3.00;;
17251;SDS011;8742;51.716;8.790;2023-05-16T06:04:26;16.83;;;3.03;;
17251;SDS011;8742;51.716;8.790;2023-05-16T06:06:53;12.13;;;2.60;;
17251;SDS011;8742;51.716;8.790;2023-05-16T06:09:20;10.20;;;2.07;;
17251;SDS011;8742;51.716;8.790;2023-05-16T06:11:47;13.40;;;3.60;;
17251;SDS011;8742;51.716;8.790;2023-05-16T06:14:16;10.63;;;2.90;;
17251;SDS011;8742;51.716;8.790;2023-05-16T06:16:43;11.00;;;2.80;;
17251;SDS011;8742;51.716;8.790;2023-05-16T06:19:10;12.23;;;3.00;;
17251;SDS011;8742;51.716;8.790;2023-05-16T06:21:39;11.57;;;2.67;;
17251;SDS011;8742;51.716;8.790;2023-05-16T06:24:06;8.07;;;2.40;;
17251;SDS011;8742;51.716;8.790;2023-05-16T06:26:34;17.17;;;3.47;;
17251;SDS011;8742;51.716;8.790;2023-05-16T06:29:01;15.80;;;3.37;;
17251;SDS011;8742;51.716;8.790;2023-05-16T06:31:29;14.37;;;2.80;;
17251;SDS011;8742;51.716;8.790;2023-05-16T06:33:56;11.70;;;2.80;;
17251;SDS011;8742;51.716;8.790;2023-05-16T06:36:23;19.00;;;3.37;;
17251;SDS011;8742;51.716;8.790;2023-05-16T06:38:50;12.47;;;2.73;;
17251;SDS011;8742;51.716;8.790;2023-05-16T06:41:17;11.23;;;3.00;;
17251;SDS011;8742;51.716;8.790;2023-05-16T06:43:44;15.83;;;3.20;;
17251;SDS011;8742;51.716;8.790;2023-05-16T06:46:10;22.77;;;3.83;;
17251;SDS011;8742;51.716;8.790;2023-05-16T06:48:39;11.10;;;2.57;;
17251;SDS011;8742;51.716;8.790;2023-05-16T06:51:05;10.57;;;3.23;;
17251;SDS011;8742;51.716;8.790;2023-05-16T06:53:32;11.73;;;3.20;;
17251;SDS011;8742;51.716;8.790;2023-05-16T06:55:59;18.50;;;3.30;;
17251;SDS011;8742;51.716;8.790;2023-05-16T06:58:26;13.07;;;3.20;;
17251;SDS011;8742;51.716;8.790;2023-05-16T07:00:53;9.97;;;2.97;;
17251;SDS011;8742;51.716;8.790;2023-05-16T07:03:20;16.97;;;2.90;;
17251;SDS011;8742;51.716;8.790;2023-05-16T07:05:48;15.67;;;3.10;;
17251;SDS011;8742;51.716;8.790;2023-05-16T07:08:17;12.60;;;2.70;;
17251;SDS011;8742;51.716;8.790;2023-05-16T07:10:43;11.00;;;2.90;;
17251;SDS011;8742;51.716;8.790;2023-05-16T07:13:10;24.50;;;3.10;;
17251;SDS011;8742;51.716;8.790;2023-05-16T07:15:39;11.13;;;2.63;;
17251;SDS011;8742;51.716;8.790;2023-05-16T07:18:06;12.50;;;2.47;;
17251;SDS011;8742;51.716;8.790;2023-05-16T07:20:33;10.77;;;2.70;;
17251;SDS011;8742;51.716;8.790;2023-05-16T07:23:01;7.80;;;2.27;;
17251;SDS011;8742;51.716;8.790;2023-05-16T07:25:28;17.37;;;3.30;;
17251;SDS011;8742;51.716;8.790;2023-05-16T07:27:55;11.33;;;2.93;;
17251;SDS011;8742;51.716;8.790;2023-05-16T07:30:22;19.13;;;2.93;;
17251;SDS011;8742;51.716;8.790;2023-05-16T07:32:49;6.47;;;2.50;;
17251;SDS011;8742;51.716;8.790;2023-05-16T07:35:16;10.57;;;2.77;;
17251;SDS011;8742;51.716;8.790;2023-05-16T07:37:42;7.10;;;2.70;;
17251;SDS011;8742;51.716;8.790;2023-05-16T07:40:11;9.63;;;2.80;;
17251;SDS011;8742;51.716;8.790;2023-05-16T07:42:38;16.83;;;3.03;;
17251;SDS011;8742;51.716;8.790;2023-05-16T07:45:06;11.57;;;3.30;;
17251;SDS011;8742;51.716;8.790;2023-05-16T07:47:33;8.20;;;2.53;;
17251;SDS011;8742;51.716;8.790;2023-05-16T07:50:00;11.70;;;2.53;;
17251;SDS011;8742;51.716;8.790;2023-05-16T07:52:27;8.23;;;2.73;;
17251;SDS011;8742;51.716;8.790;2023-05-16T07:54:54;8.57;;;2.43;;
17251;SDS011;8742;51.716;8.790;2023-05-16T07:57:22;8.80;;;2.47;;
17251;SDS011;8742;51.716;8.790;2023-05-16T07:59:49;8.13;;;2.67;;
17251;SDS011;8742;51.716;8.790;2023-05-16T08:02:17;10.13;;;2.60;;
17251;SDS011;8742;51.716;8.790;2023-05-16T08:04:44;6.03;;;2.60;;
17251;SDS011;8742;51.716;8.790;2023-05-16T08:07:10;6.83;;;2.53;;
17251;SDS011;8742;51.716;8.790;2023-05-16T08:09:37;6.87;;;2.70;;
17251;SDS011;8742;51.716;8.790;2023-05-16T08:12:04;11.50;;;2.60;;
17251;SDS011;8742;51.716;8.790;2023-05-16T08:14:33;9.97;;;2.67;;
17251;SDS011;8742;51.716;8.790;2023-05-16T08:17:00;4.20;;;2.17;;
17251;SDS011;8742;51.716;8.790;2023-05-16T08:19:27;17.93;;;2.97;;
17251;SDS011;8742;51.716;8.790;2023-05-16T08:21:54;15.13;;;3.23;;
17251;SDS011;8742;51.716;8.790;2023-05-16T08:24:21;11.27;;;2.80;;
17251;SDS011;8742;51.716;8.790;2023-05-16T08:26:48;12.27;;;2.57;;
17251;SDS011;8742;51.716;8.790;2023-05-16T08:29:15;8.83;;;2.60;;
17251;SDS011;8742;51.716;8.790;2023-05-16T08:31:43;14.93;;;2.53;;
17251;SDS011;8742;51.716;8.790;2023-05-16T08:34:10;9.50;;;3.03;;
17251;SDS011;8742;51.716;8.790;2023-05-16T08:36:37;7.00;;;2.37;;
17251;SDS011;8742;51.716;8.790;2023-05-16T08:39:04;7.50;;;2.33;;
17251;SDS011;8742;51.716;8.790;2023-05-16T08:41:31;10.30;;;2.60;;
17251;SDS011;8742;51.716;8.790;2023-05-16T08:43:58;10.97;;;2.67;;
17251;SDS011;8742;51.716;8.790;2023-05-16T08:46:25;12.57;;;2.03;;
17251;SDS011;8742;51.716;8.790;2023-05-16T08:48:57;11.03;;;2.80;;
17251;SDS011;8742;51.716;8.790;2023-05-16T08:51:24;6.50;;;2.40;;
17251;SDS011;8742;51.716;8.790;2023-05-16T08:53:54;8.40;;;2.57;;
17251;SDS011;8742;51.716;8.790;2023-05-16T08:56:25;11.20;;;2.90;;
17251;SDS011;8742;51.716;8.790;2023-05-16T08:58:53;8.90;;;2.37;;
17251;SDS011;8742;51.716;8.790;2023-05-16T09:01:22;9.57;;;2.47;;
17251;SDS011;8742;51.716;8.790;2023-05-16T09:03:49;7.43;;;2.67;;
17251;SDS011;8742;51.716;8.790;2023-05-16T09:06:18;5.97;;;2.20;;
17251;SDS011;8742;51.716;8.790;2023-05-16T09:08:45;6.27;;;2.17;;
17251;SDS011;8742;51.716;8.790;2023-05-16T09:11:12;10.97;;;2.90;;
17251;SDS011;8742;51.716;8.790;2023-05-16T09:13:39;8.10;;;2.57;;
17251;SDS011;8742;51.716;8.790;2023-05-16T09:16:09;5.97;;;2.70;;
17251;SDS011;8742;51.716;8.790;2023-05-16T09:18:37;7.83;;;2.40;;
17251;SDS011;8742;51.716;8.790;2023-05-16T09:21:05;8.80;;;2.27;;
17251;SDS011;8742;51.716;8.790;2023-05-16T09:23:34;6.53;;;2.10;;
17251;SDS011;8742;51.716;8.790;2023-05-16T09:26:01;6.37;;;2.10;;
17251;SDS011;8742;51.716;8.790;2023-05-16T09:28:28;6.37;;;2.33;;
17251;SDS011;8742;51.716;8.790;2023-05-16T09:30:55;9.60;;;2.40;;
17251;SDS011;8742;51.716;8.790;2023-05-16T09:33:25;12.20;;;2.87;;
17251;SDS011;8742;51.716;8.790;2023-05-16T09:35:54;7.83;;;2.13;;
17251;SDS011;8742;51.716;8.790;2023-05-16T09:38:22;9.70;;;2.57;;
17251;SDS011;8742;51.716;8.790;2023-05-16T09:40:52;10.07;;;2.93;;
17251;SDS011;8742;51.716;8.790;2023-05-16T09:43:21;8.23;;;2.20;;
17251;SDS011;8742;51.716;8.790;2023-05-16T09:45:50;5.20;;;2.50;;
17251;SDS011;8742;51.716;8.790;2023-05-16T09:48:18;11.47;;;2.70;;
17251;SDS011;8742;51.716;8.790;2023-05-16T09:50:47;11.63;;;2.70;;
17251;SDS011;8742;51.716;8.790;2023-05-16T09:53:16;7.60;;;1.70;;
17251;SDS011;8742;51.716;8.790;2023-05-16T09:55:43;5.17;;;2.13;;
17251;SDS011;8742;51.716;8.790;2023-05-16T09:58:11;3.40;;;1.90;;
17251;SDS011;8742;51.716;8.790;2023-05-16T10:00:43;11.40;;;2.57;;
17251;SDS011;8742;51.716;8.790;2023-05-16T10:03:11;10.83;;;1.70;;
17251;SDS011;8742;51.716;8.790;2023-05-16T10:05:38;8.03;;;1.97;;
17251;SDS011;8742;51.716;8.790;2023-05-16T10:08:05;9.93;;;2.33;;
17251;SDS011;8742;51.716;8.790;2023-05-16T10:10:33;7.23;;;2.43;;
17251;SDS011;8742;51.716;8.790;2023-05-16T10:13:03;11.23;;;2.67;;
17251;SDS011;8742;51.716;8.790;2023-05-16T10:15:33;10.97;;;2.50;;
17251;SDS011;8742;51.716;8.790;2023-05-16T10:18:02;7.27;;;2.30;;
17251;SDS011;8742;51.716;8.790;2023-05-16T10:20:35;6.03;;;1.90;;
17251;SDS011;8742;51.716;8.790;2023-05-16T10:23:03;8.43;;;1.80;;
17251;SDS011;8742;51.716;8.790;2023-05-16T10:25:32;4.47;;;1.93;;
17251;SDS011;8742;51.716;8.790;2023-05-16T10:28:01;6.53;;;1.87;;
17251;SDS011;8742;51.716;8.790;2023-05-16T10:30:29;7.63;;;2.30;;
17251;SDS011;8742;51.716;8.790;2023-05-16T10:33:01;12.50;;;2.10;;
17251;SDS011;8742;51.716;8.790;2023-05-16T10:35:29;4.37;;;1.70;;
17251;SDS011;8742;51.716;8.790;2023-05-16T10:37:56;9.67;;;2.33;;
17251;SDS011;8742;51.716;8.790;2023-05-16T10:40:24;8.10;;;2.20;;
17251;SDS011;8742;51.716;8.790;2023-05-16T10:42:55;6.30;;;2.10;;
17251;SDS011;8742;51.716;8.790;2023-05-16T10:45:22;9.07;;;2.50;;
17251;SDS011;8742;51.716;8.790;2023-05-16T10:47:50;7.50;;;1.83;;
17251;SDS011;8742;51.716;8.790;2023-05-16T10:50:32;5.93;;;1.87;;
17251;SDS011;8742;51.716;8.790;2023-05-16T10:53:16;5.40;;;2.00;;
17251;SDS011;8742;51.716;8.790;2023-05-16T10:55:48;3.73;;;1.73;;
17251;SDS011;8742;51.716;8.790;2023-05-16T10:58:23;3.20;;;1.60;;
17251;SDS011;8742;51.716;8.790;2023-05-16T11:04:05;2.87;;;1.57;;
17251;SDS011;8742;51.716;8.790;2023-05-16T11:06:49;4.73;;;1.63;;
17251;SDS011;8742;51.716;8.790;2023-05-16T11:09:19;4.00;;;1.57;;
17251;SDS011;8742;51.716;8.790;2023-05-16T11:11:51;3.73;;;1.40;;
17251;SDS011;8742;51.716;8.790;2023-05-16T11:14:20;3.77;;;1.70;;
17251;SDS011;8742;51.716;8.790;2023-05-16T11:16:48;4.45;;;1.38;;
17251;SDS011;8742;51.716;8.790;2023-05-16T11:19:30;4.93;;;1.80;;
17251;SDS011;8742;51.716;8.790;2023-05-16T11:22:07;3.87;;;1.60;;
17251;SDS011;8742;51.716;8.790;2023-05-16T11:28:01;4.83;;;2.00;;
17251;SDS011;8742;51.716;8.790;2023-05-16T11:30:28;5.23;;;1.70;;
17251;SDS011;8742;51.716;8.790;2023-05-16T11:32:55;3.37;;;2.20;;
17251;SDS011;8742;51.716;8.790;2023-05-16T11:35:22;7.20;;;2.00;;
17251;SDS011;8742;51.716;8.790;2023-05-16T11:37:51;3.83;;;1.37;;
17251;SDS011;8742;51.716;8.790;2023-05-16T11:40:18;4.53;;;1.70;;
17251;SDS011;8742;51.716;8.790;2023-05-16T11:42:45;4.13;;;1.63;;
17251;SDS011;8742;51.716;8.790;2023-05-16T11:45:14;6.50;;;1.40;;
17251;SDS011;8742;51.716;8.790;2023-05-16T11:47:43;5.93;;;1.93;;
17251;SDS011;8742;51.716;8.790;2023-05-16T11:50:11;4.57;;;1.60;;
17251;SDS011;8742;51.716;8.790;2023-05-16T11:52:40;3.40;;;1.60;;
17251;SDS011;8742;51.716;8.790;2023-05-16T11:55:11;3.57;;;1.30;;
17251;SDS011;8742;51.716;8.790;2023-05-16T11:57:39;8.70;;;1.67;;
17251;SDS011;8742;51.716;8.790;2023-05-16T12:00:13;5.87;;;1.90;;
17251;SDS011;8742;51.716;8.790;2023-05-16T12:02:43;3.33;;;1.97;;
17251;SDS011;8742;51.716;8.790;2023-05-16T12:05:11;5.87;;;1.77;;
17251;SDS011;8742;51.716;8.790;2023-05-16T12:07:39;4.80;;;1.60;;
17251;SDS011;8742;51.716;8.790;2023-05-16T12:10:09;6.83;;;1.90;;
17251;SDS011;8742;51.716;8.790;2023-05-16T12:12:38;4.03;;;1.87;;
17251;SDS011;8742;51.716;8.790;2023-05-16T12:15:07;7.63;;;1.50;;
17251;SDS011;8742;51.716;8.790;2023-05-16T12:17:35;6.33;;;1.70;;
17251;SDS011;8742;51.716;8.790;2023-05-16T12:20:03;5.50;;;1.63;;
17251;SDS011;8742;51.716;8.790;2023-05-16T12:22:31;4.97;;;1.67;;
17251;SDS011;8742;51.716;8.790;2023-05-16T12:24:58;3.30;;;1.40;;
17251;SDS011;8742;51.716;8.790;2023-05-16T12:27:27;5.43;;;1.30;;
17251;SDS011;8742;51.716;8.790;2023-05-16T12:29:53;7.97;;;2.00;;
17251;SDS011;8742;51.716;8.790;2023-05-16T12:32:23;12.45;;;3.97;;
17251;SDS011;8742;51.716;8.790;2023-05-16T12:34:50;9.38;;;2.22;;
17251;SDS011;8742;51.716;8.790;2023-05-16T12:37:19;9.13;;;2.83;;
17251;SDS011;8742;51.716;8.790;2023-05-16T12:39:46;4.57;;;1.73;;
17251;SDS011;8742;51.716;8.790;2023-05-16T12:42:13;5.00;;;2.40;;
17251;SDS011;8742;51.716;8.790;2023-05-16T12:44:44;4.13;;;2.10;;
17251;SDS011;8742;51.716;8.790;2023-05-16T12:47:11;4.60;;;1.95;;
17251;SDS011;8742;51.716;8.790;2023-05-16T12:49:43;6.93;;;1.95;;
17251;SDS011;8742;51.716;8.790;2023-05-16T12:52:10;5.80;;;2.00;;
17251;SDS011;8742;51.716;8.790;2023-05-16T12:54:44;3.17;;;1.65;;
17251;SDS011;8742;51.716;8.790;2023-05-16T12:57:11;5.50;;;1.80;;
17251;SDS011;8742;51.716;8.790;2023-05-16T12:59:38;5.77;;;1.60;;
17251;SDS011;8742;51.716;8.790;2023-05-16T13:02:07;10.03;;;1.27;;
17251;SDS011;8742;51.716;8.790;2023-05-16T13:04:33;6.60;;;2.00;;
17251;SDS011;8742;51.716;8.790;2023-05-16T13:07:01;3.63;;;1.60;;
17251;SDS011;8742;51.716;8.790;2023-05-16T13:09:28;3.30;;;1.43;;
17251;SDS011;8742;51.716;8.790;2023-05-16T13:11:55;7.13;;;1.70;;
17251;SDS011;8742;51.716;8.790;2023-05-16T13:14:22;5.17;;;1.80;;
17251;SDS011;8742;51.716;8.790;2023-05-16T13:16:49;4.73;;;1.80;;
17251;SDS011;8742;51.716;8.790;2023-05-16T13:19:18;8.50;;;1.93;;
17251;SDS011;8742;51.716;8.790;2023-05-16T13:21:47;4.23;;;1.80;;
17251;SDS011;8742;51.716;8.790;2023-05-16T13:24:13;6.57;;;1.97;;
17251;SDS011;8742;51.716;8.790;2023-05-16T13:26:40;10.33;;;2.10;;
17251;SDS011;8742;51.716;8.790;2023-05-16T13:29:07;4.23;;;1.73;;
17251;SDS011;8742;51.716;8.790;2023-05-16T13:31:35;3.50;;;1.73;;
17251;SDS011;8742;51.716;8.790;2023-05-16T13:34:02;6.53;;;1.67;;
17251;SDS011;8742;51.716;8.790;2023-05-16T13:36:30;6.07;;;1.53;;
17251;SDS011;8742;51.716;8.790;2023-05-16T13:38:57;2.00;;;1.40;;
17251;SDS011;8742;51.716;8.790;2023-05-16T13:41:24;4.27;;;1.47;;
17251;SDS011;8742;51.716;8.790;2023-05-16T13:43:51;4.37;;;1.70;;
17251;SDS011;8742;51.716;8.790;2023-05-16T13:46:18;3.37;;;1.77;;
17251;SDS011;8742;51.716;8.790;2023-05-16T13:48:45;5.07;;;1.90;;
17251;SDS011;8742;51.716;8.790;2023-05-16T13:51:12;3.97;;;1.80;;
17251;SDS011;8742;51.716;8.790;2023-05-16T13:53:40;6.93;;;1.77;;
17251;SDS011;8742;51.716;8.790;2023-05-16T13:56:07;7.03;;;1.87;;
17251;SDS011;8742;51.716;8.790;2023-05-16T13:58:33;4.60;;;1.50;;
17251;SDS011;8742;51.716;8.790;2023-05-16T14:01:01;7.30;;;1.40;;
17251;SDS011;8742;51.716;8.790;2023-05-16T14:03:27;1.93;;;1.20;;
17251;SDS011;8742;51.716;8.790;2023-05-16T14:05:54;5.17;;;1.60;;
17251;SDS011;8742;51.716;8.790;2023-05-16T14:08:21;8.33;;;1.43;;
17251;SDS011;8742;51.716;8.790;2023-05-16T14:10:49;4.77;;;1.43;;
17251;SDS011;8742;51.716;8.790;2023-05-16T14:13:16;4.60;;;1.90;;
17251;SDS011;8742;51.716;8.790;2023-05-16T14:15:43;7.57;;;1.58;;
17251;SDS011;8742;51.716;8.790;2023-05-16T14:18:10;3.83;;;1.80;;
17251;SDS011;8742;51.716;8.790;2023-05-16T14:20:37;2.55;;;1.63;;
17251;SDS011;8742;51.716;8.790;2023-05-16T14:23:05;3.07;;;1.67;;
17251;SDS011;8742;51.716;8.790;2023-05-16T14:25:31;5.80;;;1.50;;
17251;SDS011;8742;51.716;8.790;2023-05-16T14:28:00;2.90;;;1.60;;
17251;SDS011;8742;51.716;8.790;2023-05-16T14:30:26;3.33;;;1.60;;
17251;SDS011;8742;51.716;8.790;2023-05-16T14:32:53;4.77;;;1.60;;
17251;SDS011;8742;51.716;8.790;2023-05-16T14:35:20;3.67;;;1.77;;
17251;SDS011;8742;51.716;8.790;2023-05-16T14:37:47;3.70;;;1.53;;
17251;SDS011;8742;51.716;8.790;2023-05-16T14:40:14;4.47;;;1.83;;
17251;SDS011;8742;51.716;8.790;2023-05-16T14:42:41;6.87;;;1.80;;
17251;SDS011;8742;51.716;8.790;2023-05-16T14:45:09;6.40;;;1.63;;
17251;SDS011;8742;51.716;8.790;2023-05-16T14:47:36;8.17;;;1.73;;
17251;SDS011;8742;51.716;8.790;2023-05-16T14:50:04;3.20;;;1.77;;
17251;SDS011;8742;51.716;8.790;2023-05-16T14:52:31;7.40;;;1.60;;
17251;SDS011;8742;51.716;8.790;2023-05-16T14:54:58;2.67;;;1.53;;
17251;SDS011;8742;51.716;8.790;2023-05-16T14:57:25;6.27;;;1.70;;
17251;SDS011;8742;51.716;8.790;2023-05-16T14:59:52;7.50;;;1.30;;
17251;SDS011;8742;51.716;8.790;2023-05-16T15:02:20;3.87;;;1.63;;
17251;SDS011;8742;51.716;8.790;2023-05-16T15:04:47;6.40;;;1.63;;